Meath Environmental Platform

Observations for Trim Patrick St

Time AQI Temp °C Hum % Pres Pa CO μg/m³ H₂S μg/m³ NO μg/m³ NO₂ μg/m³ O₃ μg/m³ SO₂ μg/m³ PM1 μg/m³ PM2.5 μg/m³ PM10 μg/m³
Thursday 6 August 2026
01:52 2 13.6 73 38,460 0.24 0.98 3.56 11.45 39.58 0 2 6.37 7
01:51 2 13.6 72 38,460 0.25 0.7 3.57 11.52 42.85 0 2.86 7.17 7.89
01:50 2 13.6 73 38,460 0.25 0 3.5 9.62 31.16 0 2.86 6.38 7.02
01:49 2 13.6 74 38,460 0.24 0 3.37 11.88 37.09 0 2.86 6.36 6.99
01:47 2 13.7 73 38,460 0.23 0 3.36 8.35 32.26 0 2.86 6.41 7.05
01:46 2 13.7 73 38,460 0.24 0.65 3.31 11.46 40.5 0 2.86 6.39 7.03
01:44 2 13.7 74 38,460 0.24 0.07 3.38 9.99 32.36 0 2 5.63 6.19
01:41 2 13.7 74 38,460 0.25 0.7 3.38 11.21 35.19 0 2.86 7.04 7.75
01:35 2 13.8 74 38,460 0.25 0 3.47 11.77 34.5 0 2.86 7.03 7.73
01:32 2 13.8 73 38,460 0.26 1.61 3.49 11.72 40.44 0 3.71 7.81 8.6
01:31 2 13.8 73 38,460 0.27 1.71 3.48 13.72 51.43 0 3.71 7.79 8.57
01:30 2 13.8 74 38,460 0.26 1.14 3.45 12.25 40.36 0 4.57 8.47 9.32
01:29 2 13.8 74 38,460 0.28 1.5 3.51 11.16 34.9 0 3.71 8.46 9.31
01:28 2 13.8 73 38,460 0.28 2.13 3.47 12.77 45.71 0 4.57 9.23 10.15
01:27 2 13.8 73 38,460 0.28 2.51 3.48 13.83 54.57 0 4.57 9.97 10.97
01:26 2 13.8 73 38,460 0.29 1.71 3.45 11.92 47.58 0 3.71 8.54 9.4
01:25 2 13.8 73 38,460 0.29 1.53 3.42 11.18 32.59 0 6.29 11.37 12.51
01:24 2 13.8 74 38,460 0.31 2.9 3.31 14.35 46.22 0 7.14 12.05 13.26
01:23 2 13.8 74 38,460 0.3 2.46 3.38 20.54 49.85 0 7.14 10.63 11.69
01:22 2 13.8 74 38,460 0.31 2.49 3.41 11.87 44.11 0 7.14 12.03 13.23